createdAt,value
2017-07-03T00:00:37.065Z,9.00
2017-07-03T00:03:04.680Z,8.77
2017-07-03T00:05:32.253Z,9.13
2017-07-03T00:07:59.841Z,8.00
2017-07-03T00:10:27.416Z,8.50
2017-07-03T00:12:54.998Z,9.23
2017-07-03T00:15:22.582Z,9.27
2017-07-03T00:17:50.524Z,8.65
2017-07-03T00:20:18.102Z,8.73
2017-07-03T00:22:45.683Z,8.10
2017-07-03T00:25:14.027Z,8.18
2017-07-03T00:27:41.604Z,7.85
2017-07-03T00:30:09.202Z,7.80
2017-07-03T00:32:36.779Z,8.73
2017-07-03T00:35:04.351Z,8.90
2017-07-03T00:37:31.925Z,8.03
2017-07-03T00:39:59.780Z,8.63
2017-07-03T00:42:27.360Z,7.53
2017-07-03T00:44:54.941Z,8.60
2017-07-03T00:47:23.279Z,7.78
2017-07-03T00:49:50.857Z,7.40
2017-07-03T00:52:18.439Z,6.32
2017-07-03T00:54:46.761Z,6.22
2017-07-03T00:57:14.352Z,5.15
2017-07-03T00:59:41.957Z,5.55
2017-07-03T01:02:09.871Z,5.35
2017-07-03T01:04:37.459Z,6.18
2017-07-03T01:07:05.801Z,5.80
2017-07-03T01:09:33.389Z,5.87
2017-07-03T01:12:01.735Z,5.57
2017-07-03T01:14:29.313Z,5.80
2017-07-03T01:16:56.905Z,6.03
2017-07-03T01:19:24.842Z,6.43
2017-07-03T01:21:53.186Z,5.97
2017-07-03T01:24:20.757Z,6.07
2017-07-03T01:26:48.355Z,7.50
2017-07-03T01:29:16.671Z,5.50
2017-07-03T01:31:44.252Z,5.60
2017-07-03T01:34:11.844Z,5.72
2017-07-03T01:36:40.503Z,6.00
2017-07-03T01:39:08.083Z,5.75
2017-07-03T01:41:36.441Z,5.97
2017-07-03T01:44:04.024Z,5.45
2017-07-03T01:46:32.348Z,5.30
2017-07-03T01:48:59.928Z,4.97
2017-07-03T01:51:27.500Z,5.90
2017-07-03T01:53:55.078Z,5.53
2017-07-03T01:56:23.406Z,4.87
2017-07-03T01:58:51.260Z,5.53
2017-07-03T02:01:18.831Z,4.47
2017-07-03T02:03:46.399Z,4.45
2017-07-03T02:06:13.980Z,4.15
2017-07-03T02:08:41.547Z,3.65
2017-07-03T02:11:09.138Z,4.45
2017-07-03T02:13:36.703Z,4.10
2017-07-03T02:16:04.277Z,3.42
2017-07-03T02:18:31.864Z,3.67
2017-07-03T02:20:59.722Z,3.45
2017-07-03T02:23:27.305Z,3.45
2017-07-03T02:25:55.654Z,3.80
2017-07-03T02:28:23.227Z,3.70
2017-07-03T02:30:50.799Z,2.90
2017-07-03T02:33:18.392Z,3.53
2017-07-03T02:35:45.977Z,2.90
2017-07-03T02:38:13.825Z,3.62
2017-07-03T02:40:41.387Z,3.15
2017-07-03T02:43:08.977Z,3.60
2017-07-03T02:45:36.546Z,3.65
2017-07-03T02:48:04.130Z,2.95
2017-07-03T02:50:32.490Z,3.00
2017-07-03T02:53:00.052Z,2.50
2017-07-03T02:55:27.635Z,2.22
2017-07-03T02:57:55.197Z,1.70
2017-07-03T03:00:22.771Z,1.33
2017-07-03T03:02:50.341Z,1.50
2017-07-03T03:05:17.897Z,1.40
2017-07-03T03:07:45.457Z,1.80
2017-07-03T03:10:13.020Z,1.42
2017-07-03T03:12:40.587Z,2.00
2017-07-03T03:15:08.163Z,2.50
2017-07-03T03:17:36.032Z,2.75
2017-07-03T03:20:03.606Z,2.62
2017-07-03T03:22:31.168Z,2.45
2017-07-03T03:24:58.751Z,2.80
2017-07-03T03:27:27.109Z,3.35
2017-07-03T03:29:54.698Z,3.58
2017-07-03T03:32:22.271Z,3.85
2017-07-03T03:34:49.847Z,3.55
2017-07-03T03:37:17.429Z,3.42
2017-07-03T03:39:45.286Z,3.80
2017-07-03T03:42:12.853Z,3.53
2017-07-03T03:44:40.444Z,4.28
2017-07-03T03:47:08.777Z,4.40
2017-07-03T03:49:36.334Z,3.75
2017-07-03T03:52:03.921Z,3.75
2017-07-03T03:54:31.503Z,4.37
2017-07-03T03:56:59.097Z,4.57
2017-07-03T03:59:26.661Z,4.15
2017-07-03T04:01:54.504Z,4.45
2017-07-03T04:04:22.073Z,4.35
2017-07-03T04:06:49.641Z,4.40
2017-07-03T04:09:17.219Z,4.57
2017-07-03T04:11:44.789Z,4.75
2017-07-03T04:14:12.378Z,4.85
2017-07-03T04:16:40.708Z,4.60
2017-07-03T04:19:08.285Z,4.60
2017-07-03T04:21:35.860Z,5.75
2017-07-03T04:24:04.517Z,5.53
2017-07-03T04:26:32.105Z,4.90
2017-07-03T04:29:00.439Z,5.55
2017-07-03T04:31:28.018Z,5.95
2017-07-03T04:33:55.579Z,5.82
2017-07-03T04:36:23.163Z,6.35
2017-07-03T04:38:51.501Z,6.03
2017-07-03T04:41:19.104Z,5.40
2017-07-03T04:43:47.437Z,6.47
2017-07-03T04:46:15.305Z,6.43
2017-07-03T04:48:42.882Z,5.95
2017-07-03T04:51:10.444Z,6.15
2017-07-03T04:53:38.015Z,6.03
2017-07-03T04:56:06.348Z,6.82
2017-07-03T04:58:33.952Z,7.07
2017-07-03T05:01:02.283Z,6.70
2017-07-03T05:03:29.878Z,6.47
2017-07-03T05:05:58.235Z,7.18
2017-07-03T05:08:26.091Z,7.00
2017-07-03T05:10:53.644Z,6.72
2017-07-03T05:13:22.839Z,6.80
2017-07-03T05:15:50.414Z,6.72
2017-07-03T05:18:17.997Z,7.28
2017-07-03T05:20:46.343Z,6.70
2017-07-03T05:23:13.900Z,7.53
2017-07-03T05:25:41.491Z,7.90
2017-07-03T05:28:09.825Z,6.85
2017-07-03T05:30:37.694Z,7.00
2017-07-03T05:33:05.268Z,7.30
2017-07-03T05:35:32.828Z,7.05
2017-07-03T05:38:00.417Z,6.80
2017-07-03T05:40:28.753Z,7.23
2017-07-03T05:43:01.954Z,7.00
2017-07-03T05:45:29.537Z,6.65
2017-07-03T05:47:57.484Z,8.15
2017-07-03T05:50:25.079Z,7.53
2017-07-03T05:52:53.417Z,8.20
2017-07-03T05:55:20.993Z,7.00
2017-07-03T05:57:48.575Z,7.30
2017-07-03T06:00:16.492Z,6.80
2017-07-03T06:02:44.066Z,6.70
2017-07-03T06:05:11.638Z,7.50
2017-07-03T06:07:39.210Z,7.57
2017-07-03T06:10:07.540Z,8.10
2017-07-03T06:12:35.164Z,7.20
2017-07-03T06:15:02.734Z,7.40
2017-07-03T06:17:30.561Z,7.80
2017-07-03T06:19:58.128Z,7.13
2017-07-03T06:22:26.475Z,7.70
2017-07-03T06:24:54.052Z,8.23
2017-07-03T06:27:21.631Z,8.03
2017-07-03T06:29:49.968Z,7.10
2017-07-03T06:32:17.533Z,7.60
2017-07-03T06:34:45.108Z,7.30
2017-07-03T06:37:12.672Z,7.63
2017-07-03T06:39:40.235Z,7.20
2017-07-03T06:42:08.569Z,6.97
2017-07-03T06:44:36.120Z,7.00
2017-07-03T06:47:03.714Z,7.30
2017-07-03T06:49:31.279Z,6.80
2017-07-03T06:51:58.891Z,7.40
2017-07-03T06:54:26.457Z,6.63
2017-07-03T06:56:54.048Z,6.93
2017-07-03T06:59:21.637Z,6.67
2017-07-03T07:01:49.990Z,5.90
2017-07-03T07:04:17.565Z,6.33
2017-07-03T07:06:45.123Z,6.90
2017-07-03T07:09:13.461Z,6.40
2017-07-03T07:11:41.067Z,6.67
2017-07-03T07:14:09.401Z,5.73
2017-07-03T07:16:36.983Z,5.80
2017-07-03T07:19:04.547Z,5.80
2017-07-03T07:21:32.119Z,5.90
2017-07-03T07:23:59.718Z,5.67
2017-07-03T07:26:27.303Z,5.60
2017-07-03T07:28:54.877Z,6.33
2017-07-03T07:31:22.468Z,5.83
2017-07-03T07:33:50.032Z,5.40
2017-07-03T07:36:17.594Z,5.67
2017-07-03T07:38:45.149Z,6.37
2017-07-03T07:41:12.730Z,5.50
2017-07-03T07:43:40.311Z,6.40
2017-07-03T07:46:07.905Z,6.17
2017-07-03T07:48:36.245Z,6.20
2017-07-03T07:51:03.849Z,5.33
2017-07-03T07:53:31.409Z,5.90
2017-07-03T07:55:58.982Z,7.27
2017-07-03T07:58:26.559Z,6.83
2017-07-03T08:00:54.127Z,6.17
2017-07-03T08:03:21.694Z,6.33
2017-07-03T08:05:49.251Z,6.70
2017-07-03T08:08:16.833Z,6.47
2017-07-03T08:10:44.427Z,6.60
2017-07-03T08:13:11.989Z,5.80
2017-07-03T08:15:39.550Z,6.20
2017-07-03T08:18:07.144Z,5.97
2017-07-03T08:20:34.725Z,5.80
2017-07-03T08:23:02.284Z,6.77
2017-07-03T08:25:30.140Z,6.10
2017-07-03T08:27:57.700Z,6.57
2017-07-03T08:30:25.279Z,5.73
2017-07-03T08:32:53.632Z,5.27
2017-07-03T08:35:21.222Z,4.93
2017-07-03T08:37:49.568Z,6.00
2017-07-03T08:40:17.125Z,5.20
2017-07-03T08:42:44.989Z,5.77
2017-07-03T08:45:12.554Z,5.50
2017-07-03T08:47:40.127Z,5.53
2017-07-03T08:50:07.719Z,6.10
2017-07-03T08:52:35.305Z,5.63
2017-07-03T08:55:02.883Z,5.80
2017-07-03T08:57:30.448Z,5.30
2017-07-03T08:59:58.306Z,5.17
2017-07-03T09:02:25.906Z,4.73
2017-07-03T09:04:54.249Z,4.97
2017-07-03T09:07:21.816Z,5.17
2017-07-03T09:09:49.382Z,5.40
2017-07-03T09:12:17.470Z,3.87
2017-07-03T09:14:45.800Z,4.10
2017-07-03T09:17:13.676Z,3.27
2017-07-03T09:19:41.238Z,3.20
2017-07-03T09:22:08.819Z,3.37
2017-07-03T09:24:36.411Z,4.07
2017-07-03T09:27:03.978Z,3.40
2017-07-03T09:29:31.560Z,3.90
2017-07-03T09:31:59.114Z,3.77
2017-07-03T09:34:26.673Z,3.13
2017-07-03T09:36:54.226Z,3.03
2017-07-03T09:39:22.115Z,3.20
2017-07-03T09:41:49.686Z,3.10
2017-07-03T09:44:17.250Z,3.30
2017-07-03T09:46:44.819Z,3.63
2017-07-03T09:49:12.393Z,3.03
2017-07-03T09:51:40.735Z,3.40
2017-07-03T09:54:08.303Z,3.10
2017-07-03T09:56:35.859Z,3.10
2017-07-03T09:59:04.191Z,2.60
2017-07-03T10:01:32.078Z,2.83
2017-07-03T10:03:59.658Z,2.90
2017-07-03T10:06:27.249Z,3.50
2017-07-03T10:08:55.610Z,3.63
2017-07-03T10:11:23.957Z,3.63
2017-07-03T10:13:51.598Z,3.73
2017-07-03T10:16:19.180Z,2.70
2017-07-03T10:18:46.756Z,3.03
2017-07-03T10:21:14.349Z,3.03
2017-07-03T10:23:42.295Z,2.70
2017-07-03T10:26:10.625Z,2.50
2017-07-03T10:28:38.183Z,1.93
2017-07-03T10:31:05.755Z,3.13
2017-07-03T10:33:33.348Z,2.70
2017-07-03T10:36:01.696Z,2.80
2017-07-03T10:38:29.284Z,2.97
2017-07-03T10:40:57.897Z,2.17
2017-07-03T10:43:25.461Z,2.43
2017-07-03T10:45:53.042Z,2.13
2017-07-03T10:48:20.616Z,2.37
2017-07-03T10:50:48.162Z,2.73
2017-07-03T10:53:15.734Z,2.97
2017-07-03T10:55:43.276Z,2.40
2017-07-03T10:58:10.830Z,2.10
2017-07-03T11:00:38.387Z,2.40
2017-07-03T11:03:06.216Z,1.67
2017-07-03T11:05:34.545Z,2.23
2017-07-03T11:08:02.093Z,2.20
2017-07-03T11:10:29.682Z,2.90
2017-07-03T11:12:57.757Z,2.07
2017-07-03T11:15:25.331Z,2.27
2017-07-03T11:17:53.649Z,1.77
2017-07-03T11:20:21.255Z,1.50
2017-07-03T11:22:48.827Z,1.60
2017-07-03T11:25:17.457Z,2.20
2017-07-03T11:27:45.030Z,1.97
2017-07-03T11:30:12.602Z,2.00
2017-07-03T11:32:40.219Z,1.60
2017-07-03T11:35:07.795Z,2.27
2017-07-03T11:37:35.379Z,2.50
2017-07-03T11:40:02.929Z,1.63
2017-07-03T11:42:30.498Z,2.00
2017-07-03T11:44:58.050Z,1.77
2017-07-03T11:47:25.899Z,1.90
2017-07-03T11:49:53.480Z,1.50
2017-07-03T11:52:21.034Z,1.63
2017-07-03T11:54:48.602Z,1.73
2017-07-03T11:57:16.164Z,1.97
2017-07-03T11:59:43.726Z,1.87
2017-07-03T12:02:11.280Z,1.97
2017-07-03T12:04:38.867Z,1.73
2017-07-03T12:07:06.450Z,2.03
2017-07-03T12:09:34.293Z,1.90
2017-07-03T12:12:01.863Z,1.97
2017-07-03T12:14:29.428Z,2.10
2017-07-03T12:16:57.003Z,1.67
2017-07-03T12:19:24.574Z,2.67
2017-07-03T12:21:52.131Z,1.70
2017-07-03T12:24:19.691Z,1.90
2017-07-03T12:26:47.262Z,1.90
2017-07-03T12:29:14.816Z,1.30
2017-07-03T12:31:42.672Z,1.70
2017-07-03T12:34:10.238Z,1.73
2017-07-03T12:36:37.805Z,1.87
2017-07-03T12:39:05.363Z,1.13
2017-07-03T12:41:32.915Z,1.00
2017-07-03T12:44:00.494Z,1.10
2017-07-03T12:46:28.045Z,1.50
2017-07-03T12:48:55.883Z,1.40
2017-07-03T12:51:23.447Z,1.20
2017-07-03T12:53:51.031Z,1.70
2017-07-03T12:56:18.589Z,1.53
2017-07-03T12:58:46.154Z,2.17
2017-07-03T13:01:13.725Z,1.60
2017-07-03T13:03:42.060Z,1.43
2017-07-03T13:06:09.648Z,1.63
2017-07-03T13:08:37.215Z,1.30
2017-07-03T13:11:04.794Z,1.50
2017-07-03T13:13:32.344Z,1.23
2017-07-03T13:16:00.669Z,0.93
2017-07-03T13:18:28.240Z,1.47
2017-07-03T13:20:55.806Z,1.20
2017-07-03T13:23:23.373Z,1.17
2017-07-03T13:25:50.932Z,1.40
2017-07-03T13:28:18.554Z,1.10
2017-07-03T13:30:46.133Z,1.40
2017-07-03T13:33:14.114Z,1.17
2017-07-03T13:35:41.677Z,1.27
2017-07-03T13:38:09.237Z,1.17
2017-07-03T13:40:36.805Z,1.37
2017-07-03T13:43:04.360Z,1.20
2017-07-03T13:45:31.926Z,1.90
2017-07-03T13:48:00.249Z,1.23
2017-07-03T13:50:28.080Z,1.10
2017-07-03T13:52:55.655Z,1.10
2017-07-03T13:55:23.217Z,1.00
2017-07-03T13:57:50.775Z,0.93
2017-07-03T14:00:18.334Z,1.10
2017-07-03T14:02:45.911Z,1.37
2017-07-03T14:05:13.459Z,0.97
2017-07-03T14:07:41.037Z,0.83
2017-07-03T14:10:08.596Z,0.80
2017-07-03T14:12:36.448Z,1.33
2017-07-03T14:15:04.011Z,1.20
2017-07-03T14:17:32.188Z,1.10
2017-07-03T14:19:59.768Z,1.23
2017-07-03T14:22:27.330Z,1.17
2017-07-03T14:24:54.898Z,1.00
2017-07-03T14:27:22.466Z,0.93
2017-07-03T14:29:50.797Z,1.03
2017-07-03T14:32:18.347Z,1.00
2017-07-03T14:34:46.182Z,1.30
2017-07-03T14:37:13.793Z,1.03
2017-07-03T14:39:41.353Z,1.50
2017-07-03T14:42:08.983Z,1.30
2017-07-03T14:44:36.600Z,1.00
2017-07-03T14:47:05.339Z,1.00
2017-07-03T14:49:32.912Z,0.97
2017-07-03T14:52:00.795Z,1.33
2017-07-03T14:54:28.363Z,1.27
2017-07-03T14:56:55.922Z,1.30
2017-07-03T14:59:23.503Z,1.00
2017-07-03T15:01:51.817Z,1.13
2017-07-03T15:04:19.380Z,1.10
2017-07-03T15:06:46.977Z,1.10
2017-07-03T15:09:14.931Z,1.20
2017-07-03T15:11:42.498Z,1.60
2017-07-03T15:14:10.079Z,1.10
2017-07-03T15:16:38.438Z,1.00
2017-07-03T15:19:06.022Z,1.20
2017-07-03T15:21:34.373Z,0.90
2017-07-03T15:24:01.954Z,0.93
2017-07-03T15:26:29.529Z,0.90
2017-07-03T15:28:57.100Z,1.03
2017-07-03T15:31:24.985Z,1.00
2017-07-03T15:33:52.548Z,1.00
2017-07-03T15:36:20.102Z,0.90
2017-07-03T15:38:47.701Z,0.70
2017-07-03T15:41:15.295Z,0.97
2017-07-03T15:43:42.884Z,0.87
2017-07-03T15:46:10.451Z,1.20
2017-07-03T15:48:38.063Z,0.93
2017-07-03T15:51:05.638Z,1.10
2017-07-03T15:53:33.491Z,1.20
2017-07-03T15:56:01.056Z,0.97
2017-07-03T15:58:28.619Z,1.00
2017-07-03T16:00:56.205Z,1.27
2017-07-03T16:03:23.810Z,1.10
2017-07-03T16:05:51.395Z,1.00
2017-07-03T16:08:18.952Z,1.00
2017-07-03T16:10:46.854Z,1.00
2017-07-03T16:13:14.434Z,1.20
2017-07-03T16:15:41.984Z,0.90
2017-07-03T16:18:09.550Z,1.07
2017-07-03T16:20:37.094Z,0.77
2017-07-03T16:23:04.685Z,1.07
2017-07-03T16:25:33.031Z,1.13
2017-07-03T16:28:00.642Z,0.77
2017-07-03T16:30:28.200Z,1.10
2017-07-03T16:32:56.165Z,1.67
2017-07-03T16:35:23.745Z,1.10
2017-07-03T16:37:51.305Z,1.00
2017-07-03T16:40:18.921Z,0.80
2017-07-03T16:42:47.252Z,0.90
2017-07-03T16:45:14.817Z,0.80
2017-07-03T16:47:42.393Z,0.90
2017-07-03T16:50:10.358Z,0.90
2017-07-03T16:52:38.092Z,1.00
2017-07-03T16:55:05.699Z,1.10
2017-07-03T16:57:33.310Z,1.00
2017-07-03T17:00:00.900Z,0.90
2017-07-03T17:02:28.510Z,0.93
2017-07-03T17:04:56.094Z,1.10
2017-07-03T17:07:23.673Z,0.83
2017-07-03T17:09:51.254Z,1.03
2017-07-03T17:12:19.102Z,1.10
2017-07-03T17:14:46.669Z,1.10
2017-07-03T17:17:14.258Z,0.97
2017-07-03T17:19:42.587Z,1.30
2017-07-03T17:22:10.140Z,1.10
2017-07-03T17:24:38.026Z,1.30
2017-07-03T17:27:05.622Z,1.07
2017-07-03T17:29:33.215Z,0.97
2017-07-03T17:32:00.778Z,1.03
2017-07-03T17:34:28.342Z,0.90
2017-07-03T17:36:56.212Z,1.30
2017-07-03T17:39:23.788Z,1.10
2017-07-03T17:41:51.357Z,1.50
2017-07-03T17:44:18.940Z,1.17
2017-07-03T17:46:47.276Z,1.07
2017-07-03T17:49:14.867Z,0.90
2017-07-03T17:51:43.219Z,1.10
2017-07-03T17:54:10.797Z,1.60
2017-07-03T17:56:39.152Z,1.60
2017-07-03T17:59:07.108Z,1.10
2017-07-03T18:01:34.698Z,1.17
2017-07-03T18:04:03.036Z,1.33
2017-07-03T18:06:30.632Z,1.00
2017-07-03T18:08:58.230Z,1.70
2017-07-03T18:11:25.825Z,1.10
2017-07-03T18:13:53.587Z,1.00
2017-07-03T18:16:21.454Z,0.90
2017-07-03T18:18:49.135Z,0.90
2017-07-03T18:21:16.698Z,0.90
2017-07-03T18:23:44.275Z,0.97
2017-07-03T18:26:12.695Z,1.03
2017-07-03T18:28:40.283Z,0.83
2017-07-03T18:31:07.855Z,1.00
2017-07-03T18:33:35.434Z,1.00
2017-07-03T18:36:03.312Z,0.90
2017-07-03T18:38:31.231Z,1.10
2017-07-03T18:40:58.814Z,1.67
2017-07-03T18:43:27.172Z,1.30
2017-07-03T18:45:54.743Z,1.53
2017-07-03T18:48:22.315Z,1.70
2017-07-03T18:50:50.667Z,1.40
2017-07-03T18:53:18.234Z,1.43
2017-07-03T18:55:45.828Z,1.23
2017-07-03T18:58:13.394Z,1.10
2017-07-03T19:00:41.271Z,1.30
2017-07-03T19:03:08.838Z,1.27
2017-07-03T19:05:36.419Z,2.37
2017-07-03T19:08:04.049Z,1.50
2017-07-03T19:10:31.652Z,1.60
2017-07-03T19:12:59.225Z,1.40
2017-07-03T19:15:27.560Z,1.60
2017-07-03T19:17:55.215Z,1.80
2017-07-03T19:20:22.855Z,1.90
2017-07-03T19:22:50.714Z,1.90
2017-07-03T19:25:18.292Z,2.00
2017-07-03T19:27:45.943Z,1.70
2017-07-03T19:30:13.743Z,1.50
2017-07-03T19:32:41.520Z,1.80
2017-07-03T19:35:09.134Z,1.30
2017-07-03T19:37:36.752Z,1.50
2017-07-03T19:40:04.362Z,1.60
2017-07-03T19:42:31.939Z,1.40
2017-07-03T19:44:59.629Z,1.50
2017-07-03T19:47:27.975Z,1.73
2017-07-03T19:49:55.538Z,2.30
2017-07-03T19:52:23.149Z,1.50
2017-07-03T19:54:50.985Z,1.73
2017-07-03T19:57:19.526Z,1.53
2017-07-03T19:59:47.140Z,1.60
2017-07-03T20:02:15.485Z,1.40
2017-07-03T20:04:43.821Z,1.70
2017-07-03T20:07:11.696Z,1.40
2017-07-03T20:09:39.280Z,1.70
2017-07-03T20:14:41.477Z,2.07
2017-07-03T20:17:09.039Z,1.80
2017-07-03T20:19:36.630Z,2.17
2017-07-03T20:22:04.192Z,2.00
2017-07-03T20:24:31.769Z,1.90
2017-07-03T20:29:34.398Z,3.00
2017-07-03T20:32:02.015Z,3.00
2017-07-03T20:34:29.873Z,2.50
2017-07-03T20:36:57.485Z,2.83
2017-07-03T20:39:25.840Z,2.43
2017-07-03T20:41:53.428Z,1.83
2017-07-03T20:44:21.431Z,2.20
2017-07-03T20:46:48.996Z,1.40
2017-07-03T20:49:16.595Z,1.60
2017-07-03T20:51:44.456Z,2.07
2017-07-03T20:54:12.111Z,2.10
2017-07-03T20:56:39.929Z,1.43
2017-07-03T20:59:08.353Z,1.33
2017-07-03T21:01:35.960Z,1.30
2017-07-03T21:04:04.298Z,1.70
2017-07-03T21:06:31.904Z,1.30
2017-07-03T21:09:00.245Z,1.40
2017-07-03T21:11:27.801Z,1.40
2017-07-03T21:13:55.768Z,1.73
2017-07-03T21:16:23.331Z,2.30
2017-07-03T21:18:50.907Z,1.90
2017-07-03T21:21:18.506Z,2.37
2017-07-03T21:23:46.078Z,1.90
2017-07-03T21:26:13.669Z,1.77
2017-07-03T21:28:41.252Z,1.90
2017-07-03T21:31:09.229Z,1.50
2017-07-03T21:33:37.546Z,1.50
2017-07-03T21:36:05.128Z,1.70
2017-07-03T21:38:32.692Z,1.57
2017-07-03T21:41:00.264Z,1.70
2017-07-03T21:43:27.841Z,1.40
2017-07-03T21:45:55.529Z,1.30
2017-07-03T21:48:23.367Z,1.57
2017-07-03T21:50:51.689Z,2.00
2017-07-03T21:53:19.241Z,1.90
2017-07-03T21:55:46.801Z,1.80
2017-07-03T21:58:14.367Z,1.87
2017-07-03T22:00:41.960Z,1.40
2017-07-03T22:03:09.526Z,1.70
2017-07-03T22:05:37.096Z,1.43
2017-07-03T22:08:04.661Z,1.57
2017-07-03T22:10:32.548Z,1.67
2017-07-03T22:13:00.139Z,1.50
2017-07-03T22:15:27.717Z,1.40
2017-07-03T22:17:55.312Z,1.47
2017-07-03T22:20:22.869Z,1.77
2017-07-03T22:22:50.456Z,1.33
2017-07-03T22:25:18.031Z,1.37
2017-07-03T22:27:45.619Z,1.50
2017-07-03T22:30:13.956Z,1.40
2017-07-03T22:32:41.865Z,1.30
2017-07-03T22:35:10.205Z,1.37
2017-07-03T22:37:37.764Z,1.50
2017-07-03T22:40:05.349Z,1.30
2017-07-03T22:42:32.922Z,1.30
2017-07-03T22:45:01.274Z,1.47
2017-07-03T22:47:28.907Z,1.20
2017-07-03T22:49:56.805Z,1.30
2017-07-03T22:52:24.360Z,1.73
2017-07-03T22:54:51.933Z,1.57
2017-07-03T22:57:19.528Z,1.50
2017-07-03T22:59:47.103Z,1.67
2017-07-03T23:02:14.668Z,1.70
2017-07-03T23:04:42.231Z,1.30
2017-07-03T23:07:10.100Z,1.40
2017-07-03T23:09:37.652Z,1.73
2017-07-03T23:12:05.205Z,1.50
2017-07-03T23:14:32.789Z,1.30
2017-07-03T23:17:00.373Z,1.50
2017-07-03T23:19:27.957Z,1.23
2017-07-03T23:21:55.523Z,1.20
2017-07-03T23:24:23.098Z,1.40
2017-07-03T23:26:50.643Z,1.50
2017-07-03T23:29:18.198Z,1.40
2017-07-03T23:31:45.785Z,1.50
2017-07-03T23:34:13.681Z,1.70
2017-07-03T23:36:41.241Z,1.27
2017-07-03T23:39:08.795Z,1.50
2017-07-03T23:41:36.478Z,1.67
2017-07-03T23:44:04.815Z,1.40
2017-07-03T23:46:32.402Z,1.43
2017-07-03T23:48:59.981Z,1.77
2017-07-03T23:51:28.459Z,1.43
2017-07-03T23:53:56.085Z,1.47
2017-07-03T23:56:23.929Z,1.30
2017-07-03T23:58:51.500Z,1.20
